This is the latest recevied weather packets stored in our database for station/object KO4ILY. If no packets are shown the sender has not sent any weather packets the latest 10 day(s).
| Time | Temp. | Humidity | Pressure | Rain* | Wind** | Luminosity | Snow |
|---|---|---|---|---|---|---|---|
| 1777359605 | 20° C | 60% | 1016.1 hPa | 0 mm | - | - | - |
| 1777356006 | 20.56° C | 61% | 1016.8 hPa | 0 mm | - | - | - |
| 1777352405 | 20.56° C | 61% | 1017.4 hPa | 0 mm | - | - | - |
| 1777348806 | 21.11° C | 59% | 1016.8 hPa | 0 mm | - | - | - |
| 1777345206 | 21.67° C | 60% | 1016.8 hPa | 0 mm | - | - | - |
| 1777341605 | 22.22° C | 60% | 1016.1 hPa | 0 mm | - | - | - |
| 1777338006 | 22.78° C | 60% | 1015.4 hPa | 0 mm | - | - | - |
| 1777334406 | 24.44° C | 57% | 1015.1 hPa | 0 mm | - | - | - |
| 1777330805 | 25.56° C | 55% | 1014.9 hPa | 0 mm | - | - | - |
| 1777327205 | 26.67° C | 53% | 1015.4 hPa | 0 mm | - | - | - |
| 1777323606 | 27.22° C | 51% | 1016.1 hPa | 0 mm | - | - | - |
| 1777320005 | 26.11° C | 52% | 1016.5 hPa | 0 mm | - | - | - |
| 1777316405 | 25.56° C | 55% | 1016.7 hPa | 0 mm | - | - | - |
| 1777312805 | 24.44° C | 57% | 1017.5 hPa | 0 mm | - | - | - |
| 1777309206 | 22.78° C | 60% | 1018.1 hPa | 0 mm | - | - | - |
| 1777305605 | 21.67° C | 61% | 1019 hPa | 0 mm | - | - | - |
| 1777302006 | 20° C | 65% | 1019.2 hPa | 0 mm | - | - | - |
| 1777298406 | 18.89° C | 69% | 1019.2 hPa | 0 mm | - | - | - |
| 1777294805 | 17.78° C | 72% | 1018.7 hPa | 0 mm | - | - | - |
| 1777291205 | 17.22° C | 75% | 1018.1 hPa | 0 mm | - | - | - |
| 1777287606 | 17.22° C | 75% | 1017.7 hPa | 0 mm | - | - | - |
| 1777284005 | 17.78° C | 76% | 1017.4 hPa | 0 mm | - | - | - |
| 1777280405 | 18.33° C | 78% | 1016.7 hPa | 0 mm | - | - | - |
| 1777276806 | 17.22° C | 80% | 1016.2 hPa | 0 mm | - | - | - |
| 1777273206 | 13.89° C | 89% | 1016.3 hPa | 0 mm | - | - | - |
* Rain latest hour (hover to see other rain measurements)
** Current wind speed in m/s (hover to see current wind gust speed)